KOLE/OLE METAR and TAF weather

Enter ICAO airport designator
Station Type Date Time Source
KOLE METAR 2020/07/08 21:35 UTC NOAA

KOLE 082135Z AUTO 32004KT 10SM CLR 28/17 A3000 RMK AO2 LTG DSNT SE AND S


Station Type Date Time Source
KOLE Decoded METAR 2020/07/08 21:35 UTC NOAA

Olean Municipal, NY, United States (KOLE) 42-14N 078-22W
Jul 08, 2020 - 05:35 PM EDT / 2020.07.08 2135 UTC
Wind: from the NW (320 degrees) at 5 MPH (4 KT):0
Visibility: 10 mile(s):0
Sky conditions: clear
Weather: Lightning observed
Temperature: 82 F (28 C)
Dew Point: 62 F (17 C)
Relative Humidity: 51%
Pressure (altimeter): 30 in. Hg (1015 hPa)
ob: KOLE 082135Z AUTO 32004KT 10SM CLR 28/17 A3000 RMK AO2 LTG DSNT SE AND S
cycle: 21

Station Type Date Time Source
KOLE TAF UTC NOAA

Error!

Example: see airport list